sensor_id;sensor_type;location;lat;lon;timestamp;pressure;altitude;pressure_sealevel;temperature;humidity
45441;BME280;31189;38.790;-77.084;2022-08-01T00:00:22;101619.17;;;26.88;100.00
45441;BME280;31189;38.790;-77.084;2022-08-01T00:02:50;101620.02;;;27.14;100.00
45441;BME280;31189;38.790;-77.084;2022-08-01T00:05:18;101613.35;;;26.78;100.00
45441;BME280;31189;38.790;-77.084;2022-08-01T00:07:46;101617.95;;;26.85;100.00
45441;BME280;31189;38.790;-77.084;2022-08-01T00:10:15;101618.68;;;26.45;100.00
45441;BME280;31189;38.790;-77.084;2022-08-01T00:12:44;101623.87;;;27.19;100.00
45441;BME280;31189;38.790;-77.084;2022-08-01T00:15:15;101621.72;;;26.73;100.00
45441;BME280;31189;38.790;-77.084;2022-08-01T00:17:43;101619.55;;;27.06;100.00
45441;BME280;31189;38.790;-77.084;2022-08-01T00:20:13;101618.33;;;26.71;100.00
45441;BME280;31189;38.790;-77.084;2022-08-01T00:22:41;101617.46;;;26.47;100.00
45441;BME280;31189;38.790;-77.084;2022-08-01T00:25:09;101614.42;;;25.65;100.00
45441;BME280;31189;38.790;-77.084;2022-08-01T00:27:37;101613.07;;;26.41;100.00
45441;BME280;31189;38.790;-77.084;2022-08-01T00:30:07;101614.48;;;26.83;100.00
45441;BME280;31189;38.790;-77.084;2022-08-01T00:32:34;101622.32;;;26.49;100.00
45441;BME280;31189;38.790;-77.084;2022-08-01T00:35:03;101630.30;;;26.85;100.00
45441;BME280;31189;38.790;-77.084;2022-08-01T00:37:31;101631.15;;;26.31;100.00
45441;BME280;31189;38.790;-77.084;2022-08-01T00:39:58;101628.42;;;26.67;100.00
45441;BME280;31189;38.790;-77.084;2022-08-01T00:42:26;101615.51;;;26.83;99.95
45441;BME280;31189;38.790;-77.084;2022-08-01T00:44:54;101619.66;;;26.70;100.00
45441;BME280;31189;38.790;-77.084;2022-08-01T00:47:22;101622.74;;;26.80;99.53
45441;BME280;31189;38.790;-77.084;2022-08-01T00:49:50;101625.94;;;26.99;97.99
45441;BME280;31189;38.790;-77.084;2022-08-01T00:52:18;101623.09;;;26.83;97.72
45441;BME280;31189;38.790;-77.084;2022-08-01T00:54:47;101614.85;;;26.44;98.74
45441;BME280;31189;38.790;-77.084;2022-08-01T00:57:15;101607.43;;;26.89;98.14
45441;BME280;31189;38.790;-77.084;2022-08-01T00:59:43;101616.38;;;26.25;100.00
45441;BME280;31189;38.790;-77.084;2022-08-01T01:02:12;101627.04;;;26.45;99.24
45441;BME280;31189;38.790;-77.084;2022-08-01T01:04:40;101623.40;;;26.71;96.65
45441;BME280;31189;38.790;-77.084;2022-08-01T01:07:15;101626.65;;;26.63;98.24
45441;BME280;31189;38.790;-77.084;2022-08-01T01:09:49;101627.08;;;26.19;100.00
45441;BME280;31189;38.790;-77.084;2022-08-01T01:12:24;101628.62;;;26.79;98.05
45441;BME280;31189;38.790;-77.084;2022-08-01T01:14:56;101627.99;;;26.92;98.49
45441;BME280;31189;38.790;-77.084;2022-08-01T01:17:32;101632.04;;;26.75;99.63
45441;BME280;31189;38.790;-77.084;2022-08-01T01:20:06;101633.63;;;26.75;98.88
45441;BME280;31189;38.790;-77.084;2022-08-01T01:22:47;101634.13;;;26.90;97.03
45441;BME280;31189;38.790;-77.084;2022-08-01T01:25:32;101631.58;;;26.36;98.94
45441;BME280;31189;38.790;-77.084;2022-08-01T01:28:12;101624.22;;;26.49;99.36
45441;BME280;31189;38.790;-77.084;2022-08-01T01:30:44;101623.20;;;26.83;97.57
45441;BME280;31189;38.790;-77.084;2022-08-01T01:33:13;101617.21;;;27.04;95.88
45441;BME280;31189;38.790;-77.084;2022-08-01T01:35:47;101615.96;;;26.41;97.86
45441;BME280;31189;38.790;-77.084;2022-08-01T01:38:20;101621.60;;;27.03;96.24
45441;BME280;31189;38.790;-77.084;2022-08-01T01:40:51;101616.53;;;26.72;96.04
45441;BME280;31189;38.790;-77.084;2022-08-01T01:43:20;101608.79;;;26.01;97.89
45441;BME280;31189;38.790;-77.084;2022-08-01T01:45:49;101593.31;;;25.72;98.92
45441;BME280;31189;38.790;-77.084;2022-08-01T01:48:19;101587.26;;;26.62;96.50
45441;BME280;31189;38.790;-77.084;2022-08-01T01:50:49;101595.86;;;26.45;97.55
45441;BME280;31189;38.790;-77.084;2022-08-01T01:53:21;101597.87;;;26.61;96.89
45441;BME280;31189;38.790;-77.084;2022-08-01T01:55:51;101597.46;;;26.91;95.16
45441;BME280;31189;38.790;-77.084;2022-08-01T01:58:20;101599.71;;;26.75;93.71
45441;BME280;31189;38.790;-77.084;2022-08-01T02:00:51;101603.70;;;26.56;97.25
45441;BME280;31189;38.790;-77.084;2022-08-01T02:03:20;101595.08;;;26.54;96.71
45441;BME280;31189;38.790;-77.084;2022-08-01T02:05:49;101590.51;;;26.85;95.26
45441;BME280;31189;38.790;-77.084;2022-08-01T02:08:19;101585.60;;;26.67;95.07
45441;BME280;31189;38.790;-77.084;2022-08-01T02:10:48;101585.65;;;26.55;96.02
45441;BME280;31189;38.790;-77.084;2022-08-01T02:13:18;101586.52;;;25.90;96.61
45441;BME280;31189;38.790;-77.084;2022-08-01T02:15:46;101587.36;;;26.55;96.24
45441;BME280;31189;38.790;-77.084;2022-08-01T02:18:14;101583.82;;;27.00;93.91
45441;BME280;31189;38.790;-77.084;2022-08-01T02:20:42;101580.56;;;26.74;94.76
45441;BME280;31189;38.790;-77.084;2022-08-01T02:23:12;101574.59;;;26.63;95.36
45441;BME280;31189;38.790;-77.084;2022-08-01T02:25:44;101572.38;;;26.77;95.26
45441;BME280;31189;38.790;-77.084;2022-08-01T02:28:17;101575.35;;;26.14;97.98
45441;BME280;31189;38.790;-77.084;2022-08-01T02:30:49;101571.00;;;26.71;95.78
45441;BME280;31189;38.790;-77.084;2022-08-01T02:33:18;101569.01;;;26.87;95.35
45441;BME280;31189;38.790;-77.084;2022-08-01T02:35:50;101559.56;;;26.96;93.46
45441;BME280;31189;38.790;-77.084;2022-08-01T02:38:22;101550.93;;;26.86;94.54
45441;BME280;31189;38.790;-77.084;2022-08-01T02:40:52;101547.51;;;26.53;96.06
45441;BME280;31189;38.790;-77.084;2022-08-01T02:43:24;101550.21;;;25.68;98.63
45441;BME280;31189;38.790;-77.084;2022-08-01T02:45:57;101541.36;;;26.54;96.62
45441;BME280;31189;38.790;-77.084;2022-08-01T02:48:28;101529.74;;;26.39;96.64
45441;BME280;31189;38.790;-77.084;2022-08-01T02:51:00;101522.81;;;26.90;94.99
45441;BME280;31189;38.790;-77.084;2022-08-01T02:53:32;101529.54;;;26.27;98.04
45441;BME280;31189;38.790;-77.084;2022-08-01T02:56:01;101522.62;;;26.75;97.38
45441;BME280;31189;38.790;-77.084;2022-08-01T02:58:30;101517.51;;;26.36;97.53
45441;BME280;31189;38.790;-77.084;2022-08-01T03:00:59;101516.66;;;26.92;96.65
45441;BME280;31189;38.790;-77.084;2022-08-01T03:03:28;101518.15;;;27.33;94.24
45441;BME280;31189;38.790;-77.084;2022-08-01T03:05:57;101516.50;;;26.90;92.53
45441;BME280;31189;38.790;-77.084;2022-08-01T03:08:25;101517.66;;;26.47;95.50
45441;BME280;31189;38.790;-77.084;2022-08-01T03:10:56;101521.62;;;27.15;94.86
45441;BME280;31189;38.790;-77.084;2022-08-01T03:13:26;101522.62;;;27.04;94.19
45441;BME280;31189;38.790;-77.084;2022-08-01T03:15:56;101525.71;;;27.30;94.65
45441;BME280;31189;38.790;-77.084;2022-08-01T03:18:25;101526.48;;;27.15;94.18
45441;BME280;31189;38.790;-77.084;2022-08-01T03:20:54;101524.01;;;27.36;95.84
45441;BME280;31189;38.790;-77.084;2022-08-01T03:23:24;101514.20;;;27.00;94.82
45441;BME280;31189;38.790;-77.084;2022-08-01T03:25:54;101512.49;;;27.10;94.94
45441;BME280;31189;38.790;-77.084;2022-08-01T03:28:22;101516.47;;;26.57;95.19
45441;BME280;31189;38.790;-77.084;2022-08-01T03:30:51;101513.50;;;26.90;94.53
45441;BME280;31189;38.790;-77.084;2022-08-01T03:33:19;101510.06;;;27.36;94.74
45441;BME280;31189;38.790;-77.084;2022-08-01T03:35:52;101508.53;;;27.03;96.15
45441;BME280;31189;38.790;-77.084;2022-08-01T03:38:23;101511.74;;;27.21;94.95
45441;BME280;31189;38.790;-77.084;2022-08-01T03:40:55;101509.16;;;27.32;95.19
45441;BME280;31189;38.790;-77.084;2022-08-01T03:43:29;101507.54;;;27.50;94.37
45441;BME280;31189;38.790;-77.084;2022-08-01T03:46:03;101498.19;;;27.33;94.02
45441;BME280;31189;38.790;-77.084;2022-08-01T03:48:33;101500.58;;;26.97;95.64
45441;BME280;31189;38.790;-77.084;2022-08-01T03:51:03;101499.95;;;26.48;98.11
45441;BME280;31189;38.790;-77.084;2022-08-01T03:53:34;101494.86;;;27.32;93.16
45441;BME280;31189;38.790;-77.084;2022-08-01T03:56:04;101494.71;;;27.52;94.16
45441;BME280;31189;38.790;-77.084;2022-08-01T03:58:35;101487.54;;;27.37;93.93
45441;BME280;31189;38.790;-77.084;2022-08-01T04:01:04;101481.76;;;27.23;94.97
45441;BME280;31189;38.790;-77.084;2022-08-01T04:03:34;101480.49;;;27.64;94.32
45441;BME280;31189;38.790;-77.084;2022-08-01T04:06:04;101475.25;;;27.39;93.93
45441;BME280;31189;38.790;-77.084;2022-08-01T04:08:36;101477.26;;;27.19;93.44
45441;BME280;31189;38.790;-77.084;2022-08-01T04:11:04;101471.53;;;27.42;94.81
45441;BME280;31189;38.790;-77.084;2022-08-01T04:13:32;101464.52;;;26.65;96.58
45441;BME280;31189;38.790;-77.084;2022-08-01T04:16:00;101464.50;;;26.85;94.55
45441;BME280;31189;38.790;-77.084;2022-08-01T04:18:28;101469.67;;;26.97;94.14
45441;BME280;31189;38.790;-77.084;2022-08-01T04:20:56;101470.62;;;27.21;93.83
45441;BME280;31189;38.790;-77.084;2022-08-01T04:23:25;101463.70;;;27.29;94.17
45441;BME280;31189;38.790;-77.084;2022-08-01T04:25:56;101468.95;;;26.88;97.40
45441;BME280;31189;38.790;-77.084;2022-08-01T04:28:25;101471.43;;;27.05;94.84
45441;BME280;31189;38.790;-77.084;2022-08-01T04:30:55;101472.25;;;27.08;95.45
45441;BME280;31189;38.790;-77.084;2022-08-01T04:33:24;101466.21;;;27.01;95.55
45441;BME280;31189;38.790;-77.084;2022-08-01T04:35:54;101462.40;;;26.76;96.04
45441;BME280;31189;38.790;-77.084;2022-08-01T04:38:26;101459.44;;;27.60;93.01
45441;BME280;31189;38.790;-77.084;2022-08-01T04:40:56;101458.84;;;27.57;92.71
45441;BME280;31189;38.790;-77.084;2022-08-01T04:43:25;101458.80;;;27.53;93.30
45441;BME280;31189;38.790;-77.084;2022-08-01T04:45:54;101457.49;;;27.18;94.34
45441;BME280;31189;38.790;-77.084;2022-08-01T04:48:24;101458.75;;;27.38;91.73
45441;BME280;31189;38.790;-77.084;2022-08-01T04:50:52;101455.04;;;27.34;91.28
45441;BME280;31189;38.790;-77.084;2022-08-01T04:53:20;101457.31;;;27.47;92.82
45441;BME280;31189;38.790;-77.084;2022-08-01T04:55:48;101454.70;;;27.79;91.82
45441;BME280;31189;38.790;-77.084;2022-08-01T04:58:17;101453.31;;;27.63;92.21
45441;BME280;31189;38.790;-77.084;2022-08-01T05:00:45;101447.23;;;27.38;92.27
45441;BME280;31189;38.790;-77.084;2022-08-01T05:03:13;101443.99;;;27.11;92.29
45441;BME280;31189;38.790;-77.084;2022-08-01T05:05:41;101440.99;;;27.16;92.78
45441;BME280;31189;38.790;-77.084;2022-08-01T05:08:09;101442.60;;;27.36;94.25
45441;BME280;31189;38.790;-77.084;2022-08-01T05:10:37;101438.94;;;27.16;94.07
45441;BME280;31189;38.790;-77.084;2022-08-01T05:13:04;101437.34;;;27.32;94.51
45441;BME280;31189;38.790;-77.084;2022-08-01T05:15:32;101437.98;;;27.25;94.56
45441;BME280;31189;38.790;-77.084;2022-08-01T05:18:00;101430.99;;;27.19;94.65
45441;BME280;31189;38.790;-77.084;2022-08-01T05:20:29;101425.27;;;27.56;94.27
45441;BME280;31189;38.790;-77.084;2022-08-01T05:22:56;101424.58;;;27.21;94.57
45441;BME280;31189;38.790;-77.084;2022-08-01T05:25:24;101422.71;;;27.61;93.53
45441;BME280;31189;38.790;-77.084;2022-08-01T05:27:52;101416.53;;;27.51;94.46
45441;BME280;31189;38.790;-77.084;2022-08-01T05:30:20;101410.04;;;27.37;95.22
45441;BME280;31189;38.790;-77.084;2022-08-01T05:32:48;101406.70;;;27.66;93.79
45441;BME280;31189;38.790;-77.084;2022-08-01T05:35:16;101400.92;;;27.45;93.18
45441;BME280;31189;38.790;-77.084;2022-08-01T05:37:44;101400.01;;;27.50;94.79
45441;BME280;31189;38.790;-77.084;2022-08-01T05:40:12;101395.80;;;27.44;93.10
45441;BME280;31189;38.790;-77.084;2022-08-01T05:42:40;101398.81;;;27.29;93.95
45441;BME280;31189;38.790;-77.084;2022-08-01T05:45:14;101397.85;;;27.93;92.33
45441;BME280;31189;38.790;-77.084;2022-08-01T05:47:42;101391.52;;;27.63;92.71
45441;BME280;31189;38.790;-77.084;2022-08-01T05:50:10;101392.96;;;27.80;93.25
45441;BME280;31189;38.790;-77.084;2022-08-01T05:52:39;101387.61;;;27.42;93.10
45441;BME280;31189;38.790;-77.084;2022-08-01T05:55:08;101386.75;;;27.74;92.93
45441;BME280;31189;38.790;-77.084;2022-08-01T05:57:36;101388.24;;;27.66;94.66
45441;BME280;31189;38.790;-77.084;2022-08-01T06:00:05;101392.90;;;27.55;93.11
45441;BME280;31189;38.790;-77.084;2022-08-01T06:02:33;101394.38;;;27.33;93.66
45441;BME280;31189;38.790;-77.084;2022-08-01T06:05:01;101389.18;;;27.74;92.95
45441;BME280;31189;38.790;-77.084;2022-08-01T06:07:29;101385.07;;;27.57;94.35
45441;BME280;31189;38.790;-77.084;2022-08-01T06:09:57;101385.98;;;27.78;93.65
45441;BME280;31189;38.790;-77.084;2022-08-01T06:12:25;101381.64;;;27.62;94.25
45441;BME280;31189;38.790;-77.084;2022-08-01T06:14:53;101378.85;;;27.72;93.48
45441;BME280;31189;38.790;-77.084;2022-08-01T06:17:21;101379.44;;;26.93;95.42
45441;BME280;31189;38.790;-77.084;2022-08-01T06:19:49;101375.46;;;27.53;93.51
45441;BME280;31189;38.790;-77.084;2022-08-01T06:22:16;101376.24;;;27.26;94.67
45441;BME280;31189;38.790;-77.084;2022-08-01T06:24:43;101373.84;;;27.59;93.09
45441;BME280;31189;38.790;-77.084;2022-08-01T06:27:11;101370.95;;;27.65;92.72
45441;BME280;31189;38.790;-77.084;2022-08-01T06:29:39;101370.49;;;27.94;93.56
45441;BME280;31189;38.790;-77.084;2022-08-01T06:32:07;101368.46;;;27.68;93.63
45441;BME280;31189;38.790;-77.084;2022-08-01T06:34:36;101364.78;;;27.59;94.14
45441;BME280;31189;38.790;-77.084;2022-08-01T06:37:03;101361.06;;;27.96;93.28
45441;BME280;31189;38.790;-77.084;2022-08-01T06:39:30;101359.50;;;27.34;94.22
45441;BME280;31189;38.790;-77.084;2022-08-01T06:41:58;101359.78;;;27.51;95.39
45441;BME280;31189;38.790;-77.084;2022-08-01T06:44:25;101362.90;;;27.50;94.99
45441;BME280;31189;38.790;-77.084;2022-08-01T06:46:53;101358.70;;;27.54;93.60
45441;BME280;31189;38.790;-77.084;2022-08-01T06:49:21;101356.03;;;27.67;93.01
45441;BME280;31189;38.790;-77.084;2022-08-01T06:51:50;101353.63;;;27.51;93.49
45441;BME280;31189;38.790;-77.084;2022-08-01T06:54:18;101351.13;;;27.63;93.32
45441;BME280;31189;38.790;-77.084;2022-08-01T06:56:46;101352.01;;;27.86;92.23
45441;BME280;31189;38.790;-77.084;2022-08-01T06:59:14;101353.90;;;27.37;94.26
45441;BME280;31189;38.790;-77.084;2022-08-01T07:01:42;101356.79;;;27.91;93.41
45441;BME280;31189;38.790;-77.084;2022-08-01T07:04:11;101357.77;;;27.25;93.55
45441;BME280;31189;38.790;-77.084;2022-08-01T07:06:38;101355.15;;;27.45;94.78
45441;BME280;31189;38.790;-77.084;2022-08-01T07:09:07;101357.56;;;28.00;93.24
45441;BME280;31189;38.790;-77.084;2022-08-01T07:11:35;101352.63;;;27.38;93.61
45441;BME280;31189;38.790;-77.084;2022-08-01T07:14:03;101353.12;;;27.77;93.19
45441;BME280;31189;38.790;-77.084;2022-08-01T07:16:31;101357.60;;;27.50;93.70
45441;BME280;31189;38.790;-77.084;2022-08-01T07:18:59;101361.29;;;27.68;92.82
45441;BME280;31189;38.790;-77.084;2022-08-01T07:21:26;101365.35;;;27.75;91.81
45441;BME280;31189;38.790;-77.084;2022-08-01T07:23:54;101366.11;;;27.69;92.00
45441;BME280;31189;38.790;-77.084;2022-08-01T07:26:22;101356.67;;;27.81;92.33
45441;BME280;31189;38.790;-77.084;2022-08-01T07:28:49;101348.59;;;27.87;93.09
45441;BME280;31189;38.790;-77.084;2022-08-01T07:31:16;101343.44;;;27.45;93.59
45441;BME280;31189;38.790;-77.084;2022-08-01T07:33:45;101344.76;;;27.38;93.69
45441;BME280;31189;38.790;-77.084;2022-08-01T07:36:13;101341.50;;;27.45;92.65
45441;BME280;31189;38.790;-77.084;2022-08-01T07:38:41;101341.44;;;27.51;91.96
45441;BME280;31189;38.790;-77.084;2022-08-01T07:41:09;101338.78;;;27.73;92.45
45441;BME280;31189;38.790;-77.084;2022-08-01T07:43:37;101337.66;;;27.95;92.29
45441;BME280;31189;38.790;-77.084;2022-08-01T07:46:05;101330.47;;;27.28;92.73
45441;BME280;31189;38.790;-77.084;2022-08-01T07:48:34;101323.41;;;27.73;93.18
45441;BME280;31189;38.790;-77.084;2022-08-01T07:51:01;101319.13;;;27.68;93.80
45441;BME280;31189;38.790;-77.084;2022-08-01T07:53:30;101312.55;;;27.44;94.48
45441;BME280;31189;38.790;-77.084;2022-08-01T07:55:58;101310.06;;;27.50;94.25
45441;BME280;31189;38.790;-77.084;2022-08-01T07:58:26;101308.53;;;27.24;94.31
45441;BME280;31189;38.790;-77.084;2022-08-01T08:00:53;101308.84;;;27.45;93.85
45441;BME280;31189;38.790;-77.084;2022-08-01T08:03:21;101310.87;;;27.22;93.76
45441;BME280;31189;38.790;-77.084;2022-08-01T08:05:49;101309.23;;;27.43;92.39
45441;BME280;31189;38.790;-77.084;2022-08-01T08:08:16;101316.86;;;27.17;93.53
45441;BME280;31189;38.790;-77.084;2022-08-01T08:10:45;101316.25;;;27.62;93.66
45441;BME280;31189;38.790;-77.084;2022-08-01T08:13:13;101310.05;;;27.48;93.69
45441;BME280;31189;38.790;-77.084;2022-08-01T08:15:41;101309.26;;;27.55;93.10
45441;BME280;31189;38.790;-77.084;2022-08-01T08:18:09;101311.38;;;27.33;93.45
45441;BME280;31189;38.790;-77.084;2022-08-01T08:20:37;101314.23;;;27.24;93.95
45441;BME280;31189;38.790;-77.084;2022-08-01T08:23:05;101316.15;;;27.83;93.67
45441;BME280;31189;38.790;-77.084;2022-08-01T08:25:34;101312.39;;;27.41;93.55
45441;BME280;31189;38.790;-77.084;2022-08-01T08:28:01;101315.12;;;27.56;93.30
45441;BME280;31189;38.790;-77.084;2022-08-01T08:30:30;101316.18;;;27.72;93.13
45441;BME280;31189;38.790;-77.084;2022-08-01T08:32:57;101314.55;;;27.52;93.48
45441;BME280;31189;38.790;-77.084;2022-08-01T08:35:26;101312.24;;;27.15;94.30
45441;BME280;31189;38.790;-77.084;2022-08-01T08:37:54;101312.78;;;27.44;93.70
45441;BME280;31189;38.790;-77.084;2022-08-01T08:40:24;101317.79;;;27.65;93.82
45441;BME280;31189;38.790;-77.084;2022-08-01T08:42:57;101321.78;;;27.24;93.86
45441;BME280;31189;38.790;-77.084;2022-08-01T08:45:26;101323.68;;;27.18;94.28
45441;BME280;31189;38.790;-77.084;2022-08-01T08:47:55;101321.33;;;27.67;93.71
45441;BME280;31189;38.790;-77.084;2022-08-01T08:50:23;101317.17;;;27.47;93.01
45441;BME280;31189;38.790;-77.084;2022-08-01T08:52:53;101319.98;;;27.63;93.29
45441;BME280;31189;38.790;-77.084;2022-08-01T08:55:22;101319.40;;;28.04;92.77
45441;BME280;31189;38.790;-77.084;2022-08-01T08:57:51;101323.79;;;27.49;93.97
45441;BME280;31189;38.790;-77.084;2022-08-01T09:00:20;101329.72;;;27.43;93.18
45441;BME280;31189;38.790;-77.084;2022-08-01T09:02:48;101330.87;;;27.60;92.43
45441;BME280;31189;38.790;-77.084;2022-08-01T09:05:16;101331.64;;;27.70;92.09
45441;BME280;31189;38.790;-77.084;2022-08-01T09:07:44;101331.81;;;27.98;91.64
45441;BME280;31189;38.790;-77.084;2022-08-01T09:10:12;101338.12;;;27.65;93.00
45441;BME280;31189;38.790;-77.084;2022-08-01T09:12:40;101338.91;;;27.22;94.36
45441;BME280;31189;38.790;-77.084;2022-08-01T09:15:40;101341.18;;;26.98;95.53
45441;BME280;31189;38.790;-77.084;2022-08-01T09:18:26;101349.20;;;27.11;96.15
45441;BME280;31189;38.790;-77.084;2022-08-01T09:21:10;101352.42;;;26.59;98.15
45441;BME280;31189;38.790;-77.084;2022-08-01T09:23:39;101352.22;;;26.91;96.65
45441;BME280;31189;38.790;-77.084;2022-08-01T09:26:08;101351.60;;;27.12;96.43
45441;BME280;31189;38.790;-77.084;2022-08-01T09:28:37;101354.64;;;27.24;96.26
45441;BME280;31189;38.790;-77.084;2022-08-01T09:31:09;101356.38;;;27.14;95.93
45441;BME280;31189;38.790;-77.084;2022-08-01T09:33:54;101357.50;;;27.20;95.88
45441;BME280;31189;38.790;-77.084;2022-08-01T09:36:24;101350.01;;;27.42;95.57
45441;BME280;31189;38.790;-77.084;2022-08-01T09:38:53;101353.46;;;27.28;95.66
45441;BME280;31189;38.790;-77.084;2022-08-01T09:41:29;101357.73;;;27.04;96.04
45441;BME280;31189;38.790;-77.084;2022-08-01T09:43:58;101358.17;;;27.65;94.48
45441;BME280;31189;38.790;-77.084;2022-08-01T09:46:26;101362.98;;;27.15;95.86
45441;BME280;31189;38.790;-77.084;2022-08-01T09:49:02;101353.68;;;26.92;96.17
45441;BME280;31189;38.790;-77.084;2022-08-01T09:51:32;101346.93;;;27.39;94.44
45441;BME280;31189;38.790;-77.084;2022-08-01T09:54:02;101346.34;;;27.40;94.19
45441;BME280;31189;38.790;-77.084;2022-08-01T09:56:37;101351.31;;;27.26;94.41
45441;BME280;31189;38.790;-77.084;2022-08-01T09:59:06;101356.37;;;27.37;94.22
45441;BME280;31189;38.790;-77.084;2022-08-01T10:01:50;101359.83;;;27.18;94.24
45441;BME280;31189;38.790;-77.084;2022-08-01T10:04:19;101359.68;;;27.14;94.39
45441;BME280;31189;38.790;-77.084;2022-08-01T10:06:49;101361.22;;;27.39;93.77
45441;BME280;31189;38.790;-77.084;2022-08-01T10:09:28;101366.45;;;26.82;93.92
45441;BME280;31189;38.790;-77.084;2022-08-01T10:11:56;101367.11;;;27.29;93.14
45441;BME280;31189;38.790;-77.084;2022-08-01T10:14:28;101367.27;;;27.01;94.37
45441;BME280;31189;38.790;-77.084;2022-08-01T10:16:57;101366.82;;;27.10;93.92
45441;BME280;31189;38.790;-77.084;2022-08-01T10:19:27;101367.50;;;27.22;93.54
45441;BME280;31189;38.790;-77.084;2022-08-01T10:21:57;101360.98;;;27.52;93.64
45441;BME280;31189;38.790;-77.084;2022-08-01T10:24:27;101365.57;;;27.50;93.81
45441;BME280;31189;38.790;-77.084;2022-08-01T10:26:58;101370.54;;;27.30;94.25
45441;BME280;31189;38.790;-77.084;2022-08-01T10:29:27;101376.48;;;27.32;93.73
45441;BME280;31189;38.790;-77.084;2022-08-01T10:31:58;101375.79;;;27.20;94.57
45441;BME280;31189;38.790;-77.084;2022-08-01T10:34:28;101375.50;;;27.45;93.60
45441;BME280;31189;38.790;-77.084;2022-08-01T10:36:57;101376.20;;;27.58;92.66
45441;BME280;31189;38.790;-77.084;2022-08-01T10:39:25;101373.79;;;27.13;92.61
45441;BME280;31189;38.790;-77.084;2022-08-01T10:41:54;101378.68;;;27.57;92.46
45441;BME280;31189;38.790;-77.084;2022-08-01T10:44:23;101381.78;;;27.35;92.71
45441;BME280;31189;38.790;-77.084;2022-08-01T10:46:55;101383.69;;;27.30;93.31
45441;BME280;31189;38.790;-77.084;2022-08-01T10:49:27;101378.93;;;26.34;94.82
45441;BME280;31189;38.790;-77.084;2022-08-01T10:51:57;101375.16;;;26.90;94.70
45441;BME280;31189;38.790;-77.084;2022-08-01T10:54:25;101376.41;;;26.56;95.44
45441;BME280;31189;38.790;-77.084;2022-08-01T10:56:54;101369.39;;;26.14;96.51
45441;BME280;31189;38.790;-77.084;2022-08-01T10:59:28;101372.56;;;26.54;95.88
45441;BME280;31189;38.790;-77.084;2022-08-01T11:01:58;101372.93;;;26.75;95.29
45441;BME280;31189;38.790;-77.084;2022-08-01T11:04:41;101373.96;;;26.59;95.32
45441;BME280;31189;38.790;-77.084;2022-08-01T11:07:17;101379.03;;;25.51;98.21
45441;BME280;31189;38.790;-77.084;2022-08-01T11:09:47;101388.73;;;26.84;95.22
45441;BME280;31189;38.790;-77.084;2022-08-01T11:12:19;101388.37;;;26.41;94.28
45441;BME280;31189;38.790;-77.084;2022-08-01T11:15:23;101391.62;;;27.11;95.42
45441;BME280;31189;38.790;-77.084;2022-08-01T11:17:52;101393.42;;;25.16;99.10
45441;BME280;31189;38.790;-77.084;2022-08-01T11:20:21;101388.21;;;25.78;96.41
45441;BME280;31189;38.790;-77.084;2022-08-01T11:23:22;101386.96;;;26.59;96.90
45441;BME280;31189;38.790;-77.084;2022-08-01T11:26:22;101385.34;;;26.59;96.61
45441;BME280;31189;38.790;-77.084;2022-08-01T11:29:22;101392.31;;;27.12;95.09
45441;BME280;31189;38.790;-77.084;2022-08-01T11:31:50;101388.44;;;26.42;94.24
45441;BME280;31189;38.790;-77.084;2022-08-01T11:34:18;101387.20;;;26.80;93.60
45441;BME280;31189;38.790;-77.084;2022-08-01T11:36:47;101384.06;;;26.55;93.58
45441;BME280;31189;38.790;-77.084;2022-08-01T11:39:17;101380.78;;;26.39;93.56
45441;BME280;31189;38.790;-77.084;2022-08-01T11:41:46;101377.68;;;26.85;93.09
45441;BME280;31189;38.790;-77.084;2022-08-01T11:44:16;101382.05;;;26.52;94.69
45441;BME280;31189;38.790;-77.084;2022-08-01T11:46:47;101382.87;;;27.30;93.48
45441;BME280;31189;38.790;-77.084;2022-08-01T11:49:49;101380.14;;;27.98;92.61
45441;BME280;31189;38.790;-77.084;2022-08-01T11:52:19;101381.84;;;26.99;91.89
45441;BME280;31189;38.790;-77.084;2022-08-01T11:54:52;101385.94;;;27.10;90.92
45441;BME280;31189;38.790;-77.084;2022-08-01T11:57:22;101382.04;;;26.84;90.90
45441;BME280;31189;38.790;-77.084;2022-08-01T11:59:52;101379.23;;;27.56;91.50
45441;BME280;31189;38.790;-77.084;2022-08-01T12:02:22;101383.88;;;27.38;90.08
45441;BME280;31189;38.790;-77.084;2022-08-01T12:04:53;101384.00;;;27.42;89.21
45441;BME280;31189;38.790;-77.084;2022-08-01T12:07:23;101387.58;;;27.27;88.24
45441;BME280;31189;38.790;-77.084;2022-08-01T12:09:59;101385.45;;;27.39;87.99
45441;BME280;31189;38.790;-77.084;2022-08-01T12:12:28;101384.87;;;24.26;93.98
45441;BME280;31189;38.790;-77.084;2022-08-01T12:14:57;101387.02;;;26.27;92.60
45441;BME280;31189;38.790;-77.084;2022-08-01T12:17:31;101388.54;;;26.16;93.22
45441;BME280;31189;38.790;-77.084;2022-08-01T12:19:59;101395.65;;;26.39;93.18
45441;BME280;31189;38.790;-77.084;2022-08-01T12:22:27;101400.66;;;26.90;90.67
45441;BME280;31189;38.790;-77.084;2022-08-01T12:24:55;101404.56;;;27.58;88.80
45441;BME280;31189;38.790;-77.084;2022-08-01T12:27:27;101404.73;;;27.48;88.81
45441;BME280;31189;38.790;-77.084;2022-08-01T12:29:57;101406.34;;;27.75;88.18
45441;BME280;31189;38.790;-77.084;2022-08-01T12:32:27;101406.90;;;27.75;89.33
45441;BME280;31189;38.790;-77.084;2022-08-01T12:34:57;101407.50;;;27.72;88.55
45441;BME280;31189;38.790;-77.084;2022-08-01T12:37:28;101418.15;;;27.41;87.62
45441;BME280;31189;38.790;-77.084;2022-08-01T12:40:12;101417.66;;;26.72;87.05
45441;BME280;31189;38.790;-77.084;2022-08-01T12:42:41;101423.38;;;27.69;87.01
45441;BME280;31189;38.790;-77.084;2022-08-01T12:45:12;101429.68;;;27.44;85.80